createdAt,value
2018-03-28T00:00:06.172Z,96726.33
2018-03-28T00:01:11.761Z,96729.66
2018-03-28T00:02:17.161Z,96734.69
2018-03-28T00:03:23.005Z,96737.09
2018-03-28T00:04:28.486Z,96734.28
2018-03-28T00:05:33.738Z,96735.64
2018-03-28T00:06:39.920Z,96739.25
2018-03-28T00:07:45.230Z,96738.89
2018-03-28T00:08:50.837Z,96737.05
2018-03-28T00:09:56.575Z,96741.18
2018-03-28T00:11:02.284Z,96732.91
2018-03-28T00:12:07.766Z,96737.91
2018-03-28T00:13:13.187Z,96736.19
2018-03-28T00:14:19.337Z,96744.89
2018-03-28T00:15:25.042Z,96741.78
2018-03-28T00:16:31.140Z,96736.53
2018-03-28T00:17:36.771Z,96740.55
2018-03-28T00:18:42.580Z,96738.91
2018-03-28T00:19:48.098Z,96736.53
2018-03-28T00:20:53.636Z,96735.39
2018-03-28T00:21:59.411Z,96740.09
2018-03-28T00:23:05.589Z,96734.22
2018-03-28T00:24:16.447Z,96739.47
2018-03-28T00:25:23.736Z,96742.32
2018-03-28T00:26:30.367Z,96744.33
2018-03-28T00:27:35.902Z,96736.09
2018-03-28T00:28:41.723Z,96732.44
2018-03-28T00:29:47.813Z,96737.03
2018-03-28T00:30:53.314Z,96729.69
2018-03-28T00:31:58.975Z,96731.52
2018-03-28T00:33:04.589Z,96737.91
2018-03-28T00:34:10.205Z,96733.02
2018-03-28T00:35:15.703Z,96731.59
2018-03-28T00:36:21.644Z,96729.85
2018-03-28T00:37:27.276Z,96725.52
2018-03-28T00:38:32.952Z,96725.23
2018-03-28T00:39:38.546Z,96724.83
2018-03-28T00:40:44.054Z,96724.30
2018-03-28T00:41:49.518Z,96726.35
2018-03-28T00:42:55.732Z,96725.50
2018-03-28T00:44:01.615Z,96729.33
2018-03-28T00:45:07.250Z,96722.70
2018-03-28T00:46:13.095Z,96724.87
2018-03-28T00:47:19.045Z,96725.52
2018-03-28T00:48:25.174Z,96722.19
2018-03-28T00:49:31.611Z,96724.42
2018-03-28T00:50:36.914Z,96721.25
2018-03-28T00:51:42.500Z,96721.73
2018-03-28T00:52:48.054Z,96719.87
2018-03-28T00:53:53.768Z,96717.00
2018-03-28T00:54:59.159Z,96717.52
2018-03-28T00:56:05.306Z,96715.03
2018-03-28T00:57:10.993Z,96712.94
2018-03-28T00:58:16.819Z,96719.70
2018-03-28T00:59:23.077Z,96716.64
2018-03-28T01:00:29.242Z,96714.17
2018-03-28T01:01:35.259Z,96723.13
2018-03-28T01:02:41.894Z,96717.38
2018-03-28T01:03:47.490Z,96714.72
2018-03-28T01:04:53.094Z,96711.65
2018-03-28T01:05:58.643Z,96709.03
2018-03-28T01:07:04.097Z,96710.99
2018-03-28T01:08:09.937Z,96713.40
2018-03-28T01:09:15.943Z,96701.44
2018-03-28T01:10:21.888Z,96705.31
2018-03-28T01:11:27.659Z,96707.31
2018-03-28T01:12:33.212Z,96707.90
2018-03-28T01:13:38.830Z,96700.28
2018-03-28T01:14:44.672Z,96704.00
2018-03-28T01:15:50.718Z,96694.12
2018-03-28T01:16:56.271Z,96693.45
2018-03-28T01:18:03.262Z,96692.96
2018-03-28T01:19:09.068Z,96695.85
2018-03-28T01:20:15.486Z,96695.02
2018-03-28T01:21:22.024Z,96698.01
2018-03-28T01:22:31.366Z,96695.28
2018-03-28T01:23:37.105Z,96696.97
2018-03-28T01:24:42.843Z,96690.34
2018-03-28T01:25:48.860Z,96688.61
2018-03-28T01:26:54.895Z,96684.34
2018-03-28T01:28:00.646Z,96683.73
2018-03-28T01:29:06.845Z,96680.84
2018-03-28T01:30:12.509Z,96688.77
2018-03-28T01:31:18.188Z,96686.23
2018-03-28T01:32:24.040Z,96689.84
2018-03-28T01:33:29.878Z,96688.55
2018-03-28T01:34:35.408Z,96687.48
2018-03-28T01:35:41.479Z,96686.98
2018-03-28T01:36:47.112Z,96683.38
2018-03-28T01:37:52.850Z,96683.11
2018-03-28T01:38:58.676Z,96687.20
2018-03-28T01:40:04.587Z,96686.08
2018-03-28T01:41:10.532Z,96689.20
2018-03-28T01:42:16.733Z,96687.70
2018-03-28T01:43:23.273Z,96684.73
2018-03-28T01:44:29.596Z,96690.05
2018-03-28T01:45:36.745Z,96689.61
2018-03-28T01:46:45.442Z,96686.67
2018-03-28T01:47:51.278Z,96686.02
2018-03-28T01:48:57.550Z,96688.33
2018-03-28T01:50:03.271Z,96693.45
2018-03-28T01:51:09.734Z,96700.73
2018-03-28T01:52:15.616Z,96691.34
2018-03-28T01:53:21.714Z,96701.67
2018-03-28T01:54:27.458Z,96692.64
2018-03-28T01:55:34.304Z,96699.36
2018-03-28T01:56:40.252Z,96698.16
2018-03-28T01:57:45.967Z,96694.02
2018-03-28T01:58:51.604Z,96694.11
2018-03-28T01:59:57.429Z,96689.66
2018-03-28T02:01:03.370Z,96691.28
2018-03-28T02:02:08.974Z,96699.42
2018-03-28T02:03:17.138Z,96695.32
2018-03-28T02:04:23.491Z,96687.49
2018-03-28T02:05:29.000Z,96693.41
2018-03-28T02:06:34.586Z,96688.97
2018-03-28T02:07:40.678Z,96689.05
2018-03-28T02:08:46.409Z,96690.91
2018-03-28T02:09:51.943Z,96695.15
2018-03-28T02:10:59.187Z,96698.31
2018-03-28T02:12:04.936Z,96692.56
2018-03-28T02:13:10.477Z,96690.91
2018-03-28T02:14:16.477Z,96689.71
2018-03-28T02:15:21.746Z,96689.72
2018-03-28T02:16:27.447Z,96687.00
2018-03-28T02:17:33.205Z,96688.81
2018-03-28T02:18:38.793Z,96685.13
2018-03-28T02:19:44.450Z,96681.84
2018-03-28T02:20:50.869Z,96685.05
2018-03-28T02:21:56.630Z,96681.97
2018-03-28T02:23:03.292Z,96686.47
2018-03-28T02:24:09.175Z,96682.95
2018-03-28T02:25:15.102Z,96688.38
2018-03-28T02:26:20.846Z,96689.71
2018-03-28T02:27:27.079Z,96688.52
2018-03-28T02:28:32.640Z,96687.32
2018-03-28T02:29:38.724Z,96687.17
2018-03-28T02:30:44.240Z,96684.91
2018-03-28T02:31:49.817Z,96690.61
2018-03-28T02:32:55.283Z,96689.45
2018-03-28T02:34:01.771Z,96692.56
2018-03-28T02:35:07.142Z,96688.83
2018-03-28T02:36:14.744Z,96690.03
2018-03-28T02:37:20.314Z,96691.67
2018-03-28T02:38:26.041Z,96696.04
2018-03-28T02:39:31.941Z,96695.06
2018-03-28T02:40:39.730Z,96691.90
2018-03-28T02:41:45.285Z,96698.79
2018-03-28T02:42:51.456Z,96698.00
2018-03-28T02:43:57.398Z,96694.39
2018-03-28T02:45:03.153Z,96693.63
2018-03-28T02:46:09.100Z,96696.57
2018-03-28T02:47:15.711Z,96693.95
2018-03-28T02:48:22.241Z,96691.27
2018-03-28T02:49:28.282Z,96693.41
2018-03-28T02:50:33.739Z,96695.41
2018-03-28T02:51:39.287Z,96698.59
2018-03-28T02:52:44.863Z,96696.32
2018-03-28T02:53:50.727Z,96701.98
2018-03-28T02:54:56.394Z,96702.24
2018-03-28T02:56:03.570Z,96699.39
2018-03-28T02:57:09.210Z,96698.00
2018-03-28T02:58:14.525Z,96696.17
2018-03-28T02:59:20.147Z,96688.88
2018-03-28T03:00:27.478Z,96693.64
2018-03-28T03:01:33.121Z,96693.25
2018-03-28T03:02:40.838Z,96699.62
2018-03-28T03:03:46.841Z,96694.05
2018-03-28T03:04:52.597Z,96695.78
2018-03-28T03:05:58.479Z,96696.55
2018-03-28T03:07:05.913Z,96694.00
2018-03-28T03:08:11.337Z,96698.19
2018-03-28T03:09:18.238Z,96695.96
2018-03-28T03:10:24.758Z,96700.11
2018-03-28T03:11:30.846Z,96696.14
2018-03-28T03:12:36.765Z,96693.07
2018-03-28T03:13:45.109Z,96689.77
2018-03-28T03:14:51.441Z,96690.98
2018-03-28T03:15:58.619Z,96692.05
2018-03-28T03:17:07.085Z,96695.88
2018-03-28T03:18:14.118Z,96695.47
2018-03-28T03:19:19.912Z,96692.48
2018-03-28T03:20:27.235Z,96693.20
2018-03-28T03:21:35.446Z,96690.35
2018-03-28T03:22:42.177Z,96687.14
2018-03-28T03:23:48.482Z,96687.67
2018-03-28T03:24:54.448Z,96685.23
2018-03-28T03:25:59.553Z,96685.81
2018-03-28T03:27:04.951Z,96688.44
2018-03-28T03:28:10.349Z,96687.00
2018-03-28T03:29:15.426Z,96689.36
2018-03-28T03:30:20.928Z,96689.92
2018-03-28T03:31:26.651Z,96692.35
2018-03-28T03:32:32.190Z,96689.10
2018-03-28T03:33:38.231Z,96698.19
2018-03-28T03:34:44.005Z,96695.67
2018-03-28T03:35:51.115Z,96691.75
2018-03-28T03:36:56.668Z,96687.98
2018-03-28T03:38:02.459Z,96685.80
2018-03-28T03:39:12.188Z,96684.52
2018-03-28T03:40:18.721Z,96681.09
2018-03-28T03:41:25.194Z,96679.21
2018-03-28T03:42:30.877Z,96686.48
2018-03-28T03:43:36.296Z,96686.16
2018-03-28T03:44:43.197Z,96684.78
2018-03-28T03:45:49.020Z,96691.15
2018-03-28T03:46:54.133Z,96687.77
2018-03-28T03:47:59.226Z,96684.61
2018-03-28T03:49:04.321Z,96687.37
2018-03-28T03:50:10.001Z,96686.61
2018-03-28T03:51:17.550Z,96685.09
2018-03-28T03:52:23.111Z,96691.59
2018-03-28T03:53:28.899Z,96687.80
2018-03-28T03:54:34.028Z,96694.66
2018-03-28T03:55:39.681Z,96691.66
2018-03-28T03:56:45.608Z,96684.70
2018-03-28T03:57:51.415Z,96689.41
2018-03-28T03:58:56.858Z,96687.63
2018-03-28T04:00:02.405Z,96687.70
2018-03-28T04:01:07.741Z,96689.52
2018-03-28T04:02:13.102Z,96694.41
2018-03-28T04:03:18.561Z,96687.95
2018-03-28T04:04:26.580Z,96696.91
2018-03-28T04:05:33.211Z,96692.05
2018-03-28T04:06:38.327Z,96692.86
2018-03-28T04:07:43.434Z,96686.48
2018-03-28T04:08:50.090Z,96688.21
2018-03-28T04:09:55.573Z,96679.08
2018-03-28T04:11:01.658Z,96688.61
2018-03-28T04:12:08.345Z,96693.16
2018-03-28T04:13:14.496Z,96685.06
2018-03-28T04:14:21.658Z,96684.70
2018-03-28T04:15:28.355Z,96682.52
2018-03-28T04:16:33.948Z,96680.50
2018-03-28T04:17:42.706Z,96674.80
2018-03-28T04:18:47.956Z,96686.64
2018-03-28T04:19:53.632Z,96676.53
2018-03-28T04:20:58.961Z,96683.44
2018-03-28T04:22:04.498Z,96679.47
2018-03-28T04:23:09.789Z,96681.35
2018-03-28T04:24:15.317Z,96680.91
2018-03-28T04:25:20.918Z,96679.34
2018-03-28T04:26:27.329Z,96678.59
2018-03-28T04:27:34.036Z,96679.12
2018-03-28T04:28:40.869Z,96680.27
2018-03-28T04:29:46.811Z,96675.95
2018-03-28T04:30:53.841Z,96674.08
2018-03-28T04:31:59.682Z,96678.95
2018-03-28T04:33:05.867Z,96675.38
2018-03-28T04:34:12.665Z,96680.06
2018-03-28T04:35:18.302Z,96683.54
2018-03-28T04:36:24.032Z,96679.61
2018-03-28T04:37:29.530Z,96680.89
2018-03-28T04:38:34.936Z,96682.78
2018-03-28T04:39:40.196Z,96683.08
2018-03-28T04:40:45.402Z,96682.38
2018-03-28T04:41:50.366Z,96682.69
2018-03-28T04:42:56.160Z,96679.26
2018-03-28T04:44:01.490Z,96681.27
2018-03-28T04:45:10.136Z,96680.72
2018-03-28T04:46:15.907Z,96687.27
2018-03-28T04:47:21.640Z,96682.89
2018-03-28T04:48:27.078Z,96683.41
2018-03-28T04:49:33.754Z,96685.37
2018-03-28T04:50:39.639Z,96680.19
2018-03-28T04:51:44.866Z,96676.18
2018-03-28T04:52:50.090Z,96681.70
2018-03-28T04:53:55.867Z,96683.85
2018-03-28T04:55:02.316Z,96683.63
2018-03-28T04:56:08.888Z,96680.47
2018-03-28T04:57:15.289Z,96682.87
2018-03-28T04:58:20.718Z,96685.77
2018-03-28T04:59:26.034Z,96679.13
2018-03-28T05:00:31.422Z,96681.98
2018-03-28T05:01:36.937Z,96685.63
2018-03-28T05:02:42.828Z,96682.69
2018-03-28T05:03:48.479Z,96679.88
2018-03-28T05:04:54.460Z,96684.83
2018-03-28T05:06:00.547Z,96685.36
2018-03-28T05:07:06.661Z,96687.36
2018-03-28T05:08:12.384Z,96682.23
2018-03-28T05:09:18.059Z,96687.77
2018-03-28T05:10:23.530Z,96688.66
2018-03-28T05:11:29.548Z,96684.16
2018-03-28T05:12:35.326Z,96687.14
2018-03-28T05:13:40.980Z,96685.63
2018-03-28T05:14:46.925Z,96688.03
2018-03-28T05:15:53.458Z,96687.98
2018-03-28T05:17:02.042Z,96684.77
2018-03-28T05:18:08.938Z,96684.77
2018-03-28T05:19:14.410Z,96682.34
2018-03-28T05:20:19.967Z,96684.39
2018-03-28T05:21:26.859Z,96685.29
2018-03-28T05:22:34.176Z,96685.16
2018-03-28T05:23:40.383Z,96691.03
2018-03-28T05:24:46.158Z,96687.55
2018-03-28T05:25:51.541Z,96688.45
2018-03-28T05:26:56.730Z,96695.08
2018-03-28T05:28:03.495Z,96681.31
2018-03-28T05:29:08.977Z,96684.11
2018-03-28T05:30:14.888Z,96682.16
2018-03-28T05:31:20.651Z,96682.23
2018-03-28T05:32:26.179Z,96677.73
2018-03-28T05:33:31.875Z,96681.79
2018-03-28T05:34:37.831Z,96681.59
2018-03-28T05:35:43.243Z,96686.02
2018-03-28T05:36:48.945Z,96682.77
2018-03-28T05:37:54.412Z,96685.22
2018-03-28T05:38:59.981Z,96680.19
2018-03-28T05:40:05.648Z,96680.59
2018-03-28T05:41:11.295Z,96684.93
2018-03-28T05:42:16.726Z,96686.16
2018-03-28T05:43:22.150Z,96682.89
2018-03-28T05:44:27.870Z,96681.34
2018-03-28T05:45:33.750Z,96676.81
2018-03-28T05:46:39.828Z,96683.48
2018-03-28T05:47:45.504Z,96679.38
2018-03-28T05:48:51.307Z,96684.13
2018-03-28T05:49:57.335Z,96685.08
2018-03-28T05:51:02.906Z,96689.37
2018-03-28T05:52:08.396Z,96692.08
2018-03-28T05:53:14.788Z,96690.61
2018-03-28T05:54:21.431Z,96690.39
2018-03-28T05:55:28.763Z,96689.14
2018-03-28T05:56:34.413Z,96692.80
2018-03-28T05:57:40.256Z,96689.55
2018-03-28T05:58:46.296Z,96693.97
2018-03-28T05:59:52.449Z,96695.87
2018-03-28T06:00:58.402Z,96691.81
2018-03-28T06:02:05.280Z,96693.66
2018-03-28T06:03:10.974Z,96696.80
2018-03-28T06:04:16.827Z,96703.72
2018-03-28T06:05:23.839Z,96703.67
2018-03-28T06:06:30.554Z,96692.08
2018-03-28T06:07:36.558Z,96694.56
2018-03-28T06:08:42.467Z,96696.72
2018-03-28T06:09:48.621Z,96694.52
2018-03-28T06:10:54.614Z,96697.66
2018-03-28T06:12:01.892Z,96700.78
2018-03-28T06:13:07.841Z,96697.75
2018-03-28T06:14:13.639Z,96696.55
2018-03-28T06:15:21.028Z,96691.22
2018-03-28T06:16:26.678Z,96695.42
2018-03-28T06:17:32.265Z,96695.82
2018-03-28T06:18:37.787Z,96696.80
2018-03-28T06:19:44.744Z,96694.76
2018-03-28T06:20:50.473Z,96699.36
2018-03-28T06:21:56.060Z,96700.45
2018-03-28T06:23:01.964Z,96696.77
2018-03-28T06:24:07.723Z,96693.06
2018-03-28T06:25:13.743Z,96699.12
2018-03-28T06:26:19.331Z,96698.45
2018-03-28T06:27:24.845Z,96703.65
2018-03-28T06:28:30.387Z,96702.79
2018-03-28T06:29:36.400Z,96704.08
2018-03-28T06:30:42.410Z,96705.19
2018-03-28T06:31:48.808Z,96708.16
2018-03-28T06:32:54.354Z,96703.71
2018-03-28T06:34:00.733Z,96703.31
2018-03-28T06:35:06.621Z,96701.13
2018-03-28T06:36:12.058Z,96698.36
2018-03-28T06:37:17.467Z,96693.73
2018-03-28T06:38:23.270Z,96697.38
2018-03-28T06:39:28.755Z,96699.20
2018-03-28T06:40:34.249Z,96696.00
2018-03-28T06:41:40.177Z,96696.30
2018-03-28T06:42:46.676Z,96690.11
2018-03-28T06:43:52.597Z,96694.07
2018-03-28T06:44:58.574Z,96689.36
2018-03-28T06:46:04.020Z,96685.99
2018-03-28T06:47:09.571Z,96693.66
2018-03-28T06:48:15.463Z,96692.78
2018-03-28T06:49:21.536Z,96691.08
2018-03-28T06:50:27.790Z,96692.81
2018-03-28T06:51:33.792Z,96694.27
2018-03-28T06:52:39.400Z,96692.87
2018-03-28T06:53:45.304Z,96697.47
2018-03-28T06:54:50.534Z,96690.11
2018-03-28T06:55:56.552Z,96694.28
2018-03-28T06:57:02.911Z,96697.05
2018-03-28T06:58:08.731Z,96696.95
2018-03-28T06:59:14.641Z,96690.63
2018-03-28T07:00:20.498Z,96688.44
2018-03-28T07:01:25.880Z,96692.62
2018-03-28T07:02:32.364Z,96692.19
2018-03-28T07:03:37.852Z,96686.55
2018-03-28T07:04:43.805Z,96681.84
2018-03-28T07:05:49.083Z,96683.84
2018-03-28T07:06:54.573Z,96683.50
2018-03-28T07:08:01.382Z,96683.78
2018-03-28T07:09:07.699Z,96679.11
2018-03-28T07:10:12.958Z,96681.61
2018-03-28T07:11:18.666Z,96681.06
2018-03-28T07:12:24.177Z,96679.58
2018-03-28T07:13:29.679Z,96677.67
2018-03-28T07:14:36.789Z,96685.11
2018-03-28T07:15:42.365Z,96681.02
2018-03-28T07:16:47.752Z,96682.01
2018-03-28T07:17:53.606Z,96681.89
2018-03-28T07:18:59.204Z,96682.27
2018-03-28T07:20:04.838Z,96683.20
2018-03-28T07:21:10.417Z,96679.83
2018-03-28T07:22:16.357Z,96682.27
2018-03-28T07:23:23.174Z,96686.63
2018-03-28T07:24:29.839Z,96688.13
2018-03-28T07:25:35.259Z,96687.23
2018-03-28T07:26:40.673Z,96683.58
2018-03-28T07:27:47.818Z,96673.78
2018-03-28T07:28:53.170Z,96679.22
2018-03-28T07:29:58.966Z,96685.53
2018-03-28T07:31:05.875Z,96686.68
2018-03-28T07:32:11.274Z,96685.13
2018-03-28T07:33:16.572Z,96690.14
2018-03-28T07:34:21.860Z,96684.39
2018-03-28T07:35:27.575Z,96692.63
2018-03-28T07:36:33.084Z,96688.78
2018-03-28T07:37:39.712Z,96689.58
2018-03-28T07:38:45.035Z,96693.56
2018-03-28T07:39:50.807Z,96694.13
2018-03-28T07:40:56.595Z,96692.34
2018-03-28T07:42:01.814Z,96680.98
2018-03-28T07:43:07.606Z,96678.09
2018-03-28T07:44:14.972Z,96679.94
2018-03-28T07:45:20.356Z,96685.23
2018-03-28T07:46:26.653Z,96684.64
2018-03-28T07:47:32.736Z,96691.61
2018-03-28T07:48:38.746Z,96679.14
2018-03-28T07:49:44.309Z,96690.54
2018-03-28T07:50:50.205Z,96693.10
2018-03-28T07:51:56.478Z,96689.98
2018-03-28T07:53:02.536Z,96694.29
2018-03-28T07:54:08.051Z,96694.09
2018-03-28T07:55:13.360Z,96692.00
2018-03-28T07:56:19.218Z,96685.23
2018-03-28T07:57:24.352Z,96691.13
2018-03-28T07:58:31.422Z,96697.11
2018-03-28T07:59:36.906Z,96695.73
2018-03-28T08:00:43.596Z,96703.63
2018-03-28T08:01:49.050Z,96693.34
2018-03-28T08:02:54.976Z,96697.23
2018-03-28T08:04:00.379Z,96693.19
2018-03-28T08:05:07.246Z,96699.05
2018-03-28T08:06:12.505Z,96695.65
2018-03-28T08:07:17.787Z,96695.13
2018-03-28T08:08:23.753Z,96699.83
2018-03-28T08:09:30.261Z,96696.33
2018-03-28T08:10:35.599Z,96698.98
2018-03-28T08:11:42.198Z,96693.83
2018-03-28T08:12:47.606Z,96691.33
2018-03-28T08:13:52.838Z,96694.29
2018-03-28T08:14:59.017Z,96695.22
2018-03-28T08:16:04.488Z,96701.58
2018-03-28T08:17:10.797Z,96699.83
2018-03-28T08:18:16.018Z,96697.98
2018-03-28T08:19:23.387Z,96696.95
2018-03-28T08:20:28.750Z,96696.64
2018-03-28T08:21:34.499Z,96700.47
2018-03-28T08:22:40.340Z,96693.42
2018-03-28T08:23:48.661Z,96693.97
2018-03-28T08:24:54.105Z,96686.83
2018-03-28T08:25:59.643Z,96690.12
2018-03-28T08:27:07.843Z,96691.97
2018-03-28T08:28:13.759Z,96691.88
2018-03-28T08:29:19.334Z,96693.37
2018-03-28T08:30:24.611Z,96691.02
2018-03-28T08:31:31.554Z,96695.50
2018-03-28T08:32:36.826Z,96692.50
2018-03-28T08:33:42.149Z,96698.19
2018-03-28T08:34:47.949Z,96693.60
2018-03-28T08:35:53.764Z,96693.14
2018-03-28T08:36:59.829Z,96684.80
2018-03-28T08:38:06.383Z,96688.10
2018-03-28T08:39:13.246Z,96687.64
2018-03-28T08:40:18.792Z,96690.16
2018-03-28T08:41:25.873Z,96693.85
2018-03-28T08:42:31.231Z,96689.00
2018-03-28T08:43:38.628Z,96682.51
2018-03-28T08:44:49.364Z,96682.50
2018-03-28T08:45:55.186Z,96688.16
2018-03-28T14:56:27.874Z,96162.96
2018-03-28T14:57:33.589Z,96161.59
2018-03-28T14:58:39.014Z,96163.02
2018-03-28T14:59:44.668Z,96153.32
2018-03-28T15:00:49.900Z,96155.69
2018-03-28T15:01:55.159Z,96148.50
2018-03-28T15:03:01.374Z,96142.31
2018-03-28T15:04:06.614Z,96141.09
2018-03-28T15:05:11.866Z,96145.50
2018-03-28T15:06:17.106Z,96146.14
2018-03-28T15:07:22.118Z,96142.27
2018-03-28T15:08:27.030Z,96136.81
2018-03-28T15:09:32.448Z,96137.67
2018-03-28T15:10:37.481Z,96140.59
2018-03-28T15:11:42.850Z,96138.77
2018-03-28T15:12:49.658Z,96133.78
2018-03-28T15:13:55.159Z,96129.37
2018-03-28T15:15:00.693Z,96128.86
2018-03-28T15:16:07.829Z,96127.01
2018-03-28T15:17:14.343Z,96123.29
2018-03-28T15:18:19.580Z,96117.55
2018-03-28T15:19:25.266Z,96123.19
2018-03-28T15:20:31.374Z,96114.50
2018-03-28T15:21:37.182Z,96117.40
2018-03-28T15:22:43.522Z,96105.77
2018-03-28T15:23:48.677Z,96102.00
2018-03-28T15:24:53.930Z,96098.66
2018-03-28T15:25:59.119Z,96100.00
2018-03-28T15:27:04.311Z,96095.22
2018-03-28T15:28:09.509Z,96095.73
2018-03-28T15:29:14.920Z,96091.56
2018-03-28T15:30:20.038Z,96091.46
2018-03-28T15:31:25.142Z,96094.22
2018-03-28T15:32:30.367Z,96089.23
2018-03-28T15:33:35.395Z,96088.39
2018-03-28T15:34:40.457Z,96088.41
2018-03-28T15:35:45.827Z,96076.68
2018-03-28T15:36:51.723Z,96078.96
2018-03-28T15:37:57.481Z,96080.90
2018-03-28T15:39:02.907Z,96078.45
2018-03-28T15:40:07.883Z,96081.19
2018-03-28T15:41:12.762Z,96079.41
2018-03-28T15:42:17.958Z,96070.81
2018-03-28T15:43:22.837Z,96069.62
2018-03-28T15:44:29.033Z,96066.63
2018-03-28T15:45:34.469Z,96057.07
2018-03-28T15:46:40.543Z,96054.97
2018-03-28T15:47:47.558Z,96056.67
2018-03-28T15:48:52.668Z,96054.73
2018-03-28T15:49:57.746Z,96040.72
2018-03-28T15:51:03.006Z,96048.66
2018-03-28T15:52:08.274Z,96038.47
2018-03-28T15:53:13.346Z,96036.19
2018-03-28T15:54:19.134Z,96035.88
2018-03-28T15:55:24.659Z,96032.18
2018-03-28T15:56:29.868Z,96038.02
2018-03-28T15:57:35.027Z,96035.10
2018-03-28T15:58:40.131Z,96042.31
2018-03-28T15:59:45.663Z,96039.92
2018-03-28T16:00:51.815Z,96040.19
2018-03-28T16:01:56.957Z,96038.05
2018-03-28T16:03:02.143Z,96039.66
2018-03-28T16:04:07.215Z,96032.99
2018-03-28T16:05:12.417Z,96028.71
2018-03-28T16:06:17.558Z,96032.80
2018-03-28T16:07:23.048Z,96026.12
2018-03-28T16:08:28.623Z,96027.23
2018-03-28T16:09:33.837Z,96014.75
2018-03-28T16:10:38.928Z,96010.39
2018-03-28T16:11:44.241Z,96011.53
2018-03-28T16:12:50.355Z,96007.05
2018-03-28T16:13:55.777Z,96001.95
2018-03-28T16:15:00.992Z,95999.62
2018-03-28T16:16:06.086Z,95990.78
2018-03-28T16:17:11.039Z,95987.25
2018-03-28T16:18:16.070Z,95981.20
2018-03-28T16:19:21.142Z,95977.41
2018-03-28T16:20:26.534Z,95980.00
2018-03-28T16:21:31.541Z,95979.84
2018-03-28T16:22:36.763Z,95979.73
2018-03-28T16:23:41.763Z,95979.70
2018-03-28T16:24:46.825Z,95977.37
2018-03-28T16:25:52.046Z,95977.50
2018-03-28T16:26:57.511Z,95981.51
2018-03-28T16:28:03.906Z,95984.74
2018-03-28T16:29:09.580Z,95978.34
2018-03-28T16:30:14.970Z,95978.23
2018-03-28T16:31:20.000Z,95975.84
2018-03-28T16:32:25.105Z,95975.45
2018-03-28T16:33:30.994Z,95968.30
2018-03-28T16:34:41.464Z,95965.08
2018-03-28T16:35:46.865Z,95966.39
2018-03-28T16:36:54.852Z,95969.68
2018-03-28T16:38:00.404Z,95972.92
2018-03-28T16:39:07.137Z,95973.48
2018-03-28T16:40:12.557Z,95972.62
2018-03-28T16:41:17.590Z,95970.70
2018-03-28T16:42:22.754Z,95974.27
2018-03-28T16:43:29.045Z,95971.78
2018-03-28T16:44:34.214Z,95973.42
2018-03-28T16:45:39.366Z,95978.48
2018-03-28T16:46:45.087Z,95981.03
2018-03-28T16:47:50.398Z,95986.97
2018-03-28T16:48:56.348Z,95983.05
2018-03-28T16:50:01.948Z,95985.95
2018-03-28T16:51:07.265Z,95979.77
2018-03-28T16:52:13.370Z,95976.81
2018-03-28T16:53:18.767Z,95980.39
2018-03-28T16:54:23.730Z,95983.45
2018-03-28T16:55:30.361Z,95965.29
2018-03-28T16:56:36.358Z,95961.48
2018-03-28T16:57:41.679Z,95956.17
2018-03-28T16:58:48.018Z,95940.40
2018-03-28T16:59:53.904Z,95942.50
2018-03-28T17:00:59.309Z,95939.60
2018-03-28T17:02:04.582Z,95939.27
2018-03-28T17:03:09.796Z,95947.27
2018-03-28T17:04:15.228Z,95946.19
2018-03-28T17:05:22.286Z,95946.98
2018-03-28T17:06:27.262Z,95947.48
2018-03-28T17:07:33.758Z,95945.28
2018-03-28T17:08:38.790Z,95947.38
2018-03-28T17:09:44.092Z,95941.84
2018-03-28T17:10:49.458Z,95951.55
2018-03-28T17:11:55.039Z,95942.64
2018-03-28T17:13:00.277Z,95945.20
2018-03-28T17:14:06.204Z,95937.77
2018-03-28T17:15:11.713Z,95940.03
2018-03-28T17:16:16.792Z,95938.27
2018-03-28T17:17:22.403Z,95935.72
2018-03-28T17:18:27.731Z,95936.34
2018-03-28T17:19:32.920Z,95930.33
2018-03-28T17:20:38.180Z,95933.50
2018-03-28T17:21:44.182Z,95920.28
2018-03-28T17:22:50.165Z,95916.13
2018-03-28T17:23:55.290Z,95921.07
2018-03-28T17:25:00.778Z,95921.98
2018-03-28T17:26:05.754Z,95924.25
2018-03-28T17:27:10.649Z,95925.84
2018-03-28T17:28:16.360Z,95919.77
2018-03-28T17:29:21.568Z,95918.51
2018-03-28T17:30:27.436Z,95925.97
2018-03-28T17:31:32.561Z,95926.99
2018-03-28T17:32:37.695Z,95924.84
2018-03-28T17:33:43.543Z,95920.41
2018-03-28T17:34:48.601Z,95918.42
2018-03-28T17:35:54.676Z,95916.94
2018-03-28T17:36:59.627Z,95915.41
2018-03-28T17:38:05.178Z,95911.27
2018-03-28T17:39:10.420Z,95914.36
2018-03-28T17:40:15.605Z,95918.42
2018-03-28T17:41:20.802Z,95912.17
2018-03-28T17:42:26.007Z,95911.66
2018-03-28T17:43:31.089Z,95908.43
2018-03-28T17:44:36.534Z,95915.53
2018-03-28T17:45:41.693Z,95908.31
2018-03-28T17:46:46.860Z,95903.72
2018-03-28T17:47:51.881Z,95911.49
2018-03-28T17:48:57.081Z,95909.61
2018-03-28T17:50:01.967Z,95913.48
2018-03-28T17:51:07.158Z,95910.41
2018-03-28T17:52:12.274Z,95908.70
2018-03-28T17:53:17.268Z,95902.40
2018-03-28T17:54:22.409Z,95902.73
2018-03-28T17:55:27.501Z,95911.25
2018-03-28T17:56:32.528Z,95904.09
2018-03-28T17:57:37.728Z,95902.33
2018-03-28T17:58:43.222Z,95908.68
2018-03-28T17:59:48.891Z,95911.00
2018-03-28T18:00:53.808Z,95908.23
2018-03-28T18:01:58.976Z,95909.30
2018-03-28T18:03:04.154Z,95905.80
2018-03-28T18:04:09.503Z,95909.55
2018-03-28T18:05:14.660Z,95912.39
2018-03-28T18:06:19.651Z,95911.48
2018-03-28T18:07:24.663Z,95909.77
2018-03-28T18:08:29.773Z,95905.57
2018-03-28T18:09:34.776Z,95905.84
2018-03-28T18:10:41.468Z,95910.79
2018-03-28T18:11:46.592Z,95907.32
2018-03-28T18:12:51.478Z,95909.76
2018-03-28T18:13:56.503Z,95905.44
2018-03-28T18:15:02.852Z,95909.76
2018-03-28T18:16:08.026Z,95911.06
2018-03-28T18:17:13.384Z,95907.09
2018-03-28T18:18:18.422Z,95905.52
2018-03-28T18:19:23.553Z,95912.26
2018-03-28T18:20:28.749Z,95912.14
2018-03-28T18:21:35.020Z,95908.61
2018-03-28T18:22:40.127Z,95914.46
2018-03-28T18:23:45.419Z,95913.16
2018-03-28T18:24:50.431Z,95905.14
2018-03-28T18:25:56.075Z,95907.30
2018-03-28T18:27:01.224Z,95896.84
2018-03-28T18:28:06.308Z,95900.48
2018-03-28T18:29:11.824Z,95910.30
2018-03-28T18:30:17.294Z,95901.83
2018-03-28T18:31:22.420Z,95918.61
2018-03-28T18:32:28.392Z,95901.55
2018-03-28T18:33:33.577Z,95913.23
2018-03-28T18:34:40.921Z,95902.72
2018-03-28T18:35:46.509Z,95906.02
2018-03-28T18:36:52.058Z,95913.16
2018-03-28T18:37:57.001Z,95911.27
2018-03-28T18:39:01.905Z,95904.13
2018-03-28T18:40:06.849Z,95912.24
2018-03-28T18:41:11.899Z,95905.14
2018-03-28T18:42:16.974Z,95898.83
2018-03-28T18:43:22.516Z,95906.27
2018-03-28T18:44:27.837Z,95902.52
2018-03-28T18:45:34.551Z,95908.89
2018-03-28T18:46:39.713Z,95888.03
2018-03-28T18:47:44.825Z,95888.36
2018-03-28T18:48:50.782Z,95893.25
2018-03-28T18:49:56.056Z,95892.91
2018-03-28T18:51:01.238Z,95905.88
2018-03-28T18:52:06.336Z,95892.42
2018-03-28T18:53:11.368Z,95895.88
2018-03-28T18:54:16.535Z,95896.42
2018-03-28T18:55:22.056Z,95894.48
2018-03-28T18:56:27.497Z,95916.77
2018-03-28T18:57:33.172Z,95899.23
2018-03-28T18:58:38.446Z,95892.65
2018-03-28T18:59:43.333Z,95903.87
2018-03-28T19:00:48.515Z,95898.59
2018-03-28T19:01:53.849Z,95890.41